• Join FlightAware (Why Join?)
  • Login
  • US Flag 
04:07PM EDT


 

Airport Tracker/Info


-or-


 

Live Flight TrackerFlight Track Log ✈ UAL395 ✈ 25-Jun-2013 ✈ KORD - KSAN

Flight Track Log - Related Links

Times and Time Zones

All times are in EDT time to prevent confusion due to time zone crossing. See the UAL395 flight status page for this flight to view local times or setup timezone preferences in your user account.

Time Position Orientation Groundspeed Altitude Reporting Facility
EDT Latitude Longitude Course Direction KTS MPH feet Rate Location/Type
07:47PM 42.0000 -87.9667 253° West 159 183 2,300  Level Chicago TRACON
07:48PM 42.0000 -88.0333 270° West 199 229 3,900 1,920 Climbing Chicago TRACON
07:50PM 41.8332 -88.4837 254° West  Level FlightAware Approximate
07:50PM 41.9931 -88.1525 266° West 246 283 6,800  Level Chicago Center
07:51PM 41.8005 -88.6320 254° West  Level FlightAware Approximate
07:51PM 41.9894 -88.2489 267° West 260 299 9,900  Level Chicago Center
07:52PM 41.7676 -88.7802 253° West  Level FlightAware Approximate
07:52PM 41.9881 -88.3467 269° West 263 303 12,500  Level Chicago Center
07:53PM 41.7355 -88.9239 253° West  Level FlightAware Approximate
07:53PM 41.9817 -88.4547 265° West 281 323 13,500  Level Chicago Center
07:54PM 41.9428 -88.6078 251° West 352 405 15,400 1,920 Climbing Chicago Center
07:55PM 41.9089 -88.7375 251° West 369 425 17,500 1,800 Climbing Chicago Center
07:56PM 41.8694 -88.8719 249° West 386 444 19,200 1,860 Climbing Chicago Center
07:57PM 41.8281 -89.0022 247° West 385 443 21,400 1,740 Climbing Chicago Center
07:58PM 41.7803 -89.1650 249° West 394 453 22,900 1,380 Climbing Chicago Center
07:59PM 41.7375 -89.3064 248° West 409 471 24,300 1,200 Climbing Chicago Center
08:00PM 41.6944 -89.4475 248° West 413 475 25,500 1,560 Climbing Chicago Center
08:01PM 41.6475 -89.5958 247° West 412 474 27,500 1,500 Climbing Chicago Center
08:02PM 41.6061 -89.7347 248° West 407 468 28,600 1,020 Climbing Chicago Center
08:03PM 41.5619 -89.8783 248° West 416 479 29,700 960 Climbing Chicago Center
08:04PM 41.5167 -90.0225 247° West 422 486 30,700 960 Climbing Chicago Center
08:05PM 41.4714 -90.1664 247° West 423 487 31,800 1,200 Climbing Chicago Center
08:06PM 41.4169 -90.3392 247° West 424 488 33,200 1,080 Climbing Chicago Center
08:07PM 41.3714 -90.4839 247° West 426 490 34,100 840 Climbing Chicago Center
08:08PM 41.3258 -90.6289 247° West 426 490 35,000 900 Climbing Chicago Center
08:09PM 41.2928 -90.7806 254° West 426 490 36,000 480 Climbing Chicago Center
08:10PM 41.2633 -90.9272 255° West 415 478 36,000  Level Chicago Center
08:11PM 41.2328 -91.0747 255° West 415 478 36,000  Level Chicago Center
08:12PM 41.2022 -91.2219 255° West 414 476 36,000  Level Chicago Center
08:13PM 41.1661 -91.3986 255° West 415 478 36,000  Level Chicago Center
08:14PM 41.1347 -91.5425 254° West 411 473 36,000  Level Chicago Center
08:15PM 41.1047 -91.6919 255° West 409 471 36,000  Level Chicago Center
08:16PM 41.0739 -91.8336 254° West 405 466 36,000  Level Chicago Center
08:17PM 41.0442 -91.9750 254° West 403 464 36,000  Level Chicago Center
08:18PM 41.0136 -92.1131 254° West 398 458 36,000  Level Chicago Center
08:20PM 40.9781 -92.2822 254° West 400 460 36,000  Level Chicago Center
08:21PM 40.9469 -92.4222 254° West 400 460 36,000  Level Chicago Center
08:22PM 40.9167 -92.5631 254° West 403 464 36,000  Level Chicago Center
08:23PM 40.8858 -92.7025 254° West 402 463 36,000  Level Chicago Center
08:24PM 40.8486 -92.8700 254° West 402 463 36,000  Level Chicago Center
08:25PM 40.8172 -93.0083 253° West 400 460 36,000  Level Chicago Center
08:26PM 40.7864 -93.1461 254° West 398 458 36,000  Level Chicago Center
08:27PM 40.7547 -93.2839 253° West 397 457 36,000  Level Chicago Center
08:28PM 40.7242 -93.4211 254° West 395 455 36,000  Level Chicago Center
08:29PM 40.6861 -93.5858 253° West 396 456 36,000  Level Chicago Center
08:29PM 40.6636 -93.6694 250° West 401 461 36,000  Level Minneapolis Center
08:30PM 40.6317 -93.8094 253° West 405 466 36,000  Level Minneapolis Center
08:32PM 40.5983 -93.9506 253° West 405 466 36,100  Climbing Minneapolis Center
08:33PM 40.5728 -94.0947 257° West 409 471 36,000 -60 Descending Minneapolis Center
08:34PM 40.5450 -94.2694 258° West 410 472 36,000  Level Minneapolis Center
08:35PM 40.5189 -94.4144 257° West 411 473 36,000  Level Minneapolis Center
08:36PM 40.4950 -94.5594 258° West 406 467 36,000  Level Minneapolis Center
08:37PM 40.4689 -94.7042 257° West 406 467 36,000  Level Minneapolis Center
08:38PM 40.4444 -94.8486 258° West 405 466 36,000  Level Minneapolis Center
08:39PM 40.4194 -94.9917 257° West 403 464 36,000  Level Minneapolis Center
08:40PM 40.3889 -95.1647 257° West 404 465 36,000  Level Minneapolis Center
08:41PM 40.3589 -95.3381 257° West 405 466 36,000  Level Minneapolis Center
08:42PM 40.3328 -95.4819 257° West 405 466 36,000  Level Minneapolis Center
08:43PM 40.3072 -95.6250 257° West 403 464 36,000  Level Minneapolis Center
08:44PM 40.2806 -95.7678 256° West 403 464 36,000  Level Minneapolis Center
08:45PM 40.2553 -95.9086 257° West 399 459 36,000  Level Minneapolis Center
08:46PM 40.2297 -96.0461 256° West 393 452 36,000  Level Minneapolis Center
08:47PM 40.1983 -96.2131 256° West 392 451 36,000  Level Minneapolis Center
08:48PM 40.1686 -96.3522 254° West 394 453 36,000  Level Minneapolis Center
08:49PM 40.1381 -96.4919 254° West 397 457 36,000  Level Minneapolis Center
08:50PM 40.1078 -96.6331 254° West 401 461 36,000  Level Minneapolis Center
08:51PM 40.0764 -96.7739 254° West 403 464 36,000  Level Minneapolis Center
08:52PM 40.0450 -96.9150 254° West 404 465 36,000  Level Minneapolis Center
08:53PM 40.0133 -97.0561 254° West 404 465 36,000  Level Minneapolis Center
08:54PM 39.9769 -97.2267 254° West 405 466 36,000  Level Minneapolis Center
08:55PM 39.9425 -97.3747 253° West 407 468 36,000  Level Minneapolis Center
08:56PM 39.9111 -97.5169 254° West 408 470 36,000  Level Minneapolis Center
08:58PM 39.8778 -97.6589 253° West 409 471 36,000  Level Minneapolis Center
08:59PM 39.8456 -97.8019 254° West 410 472 36,000  Level Minneapolis Center
09:00PM 39.8122 -97.9458 253° West 413 475 36,000  Level Minneapolis Center
09:01PM 39.7789 -98.0894 253° West 414 476 36,000  Level Minneapolis Center
09:02PM 39.7461 -98.2333 254° West 414 476 36,000  Level Minneapolis Center
09:03PM 39.7050 -98.4081 253° West 418 481 36,000  Level Minneapolis Center
09:04PM 39.6711 -98.5522 253° West 417 480 36,000  Level Minneapolis Center
09:05PM 39.6375 -98.6942 253° West 413 475 36,000  Level Minneapolis Center
09:06PM 39.5964 -98.8639 253° West 413 475 36,000  Level Denver Center
09:07PM 39.5614 -99.0047 252° West 411 473 36,000  Level Denver Center
09:08PM 39.5278 -99.1478 253° West 413 475 36,000  Level Denver Center
09:09PM 39.4928 -99.2906 252° West 416 479 36,000  Level Denver Center
09:10PM 39.4561 -99.4394 252° West 420 483 36,000  Level Denver Center
09:11PM 39.4161 -99.6000 252° West 423 487 36,000  Level Denver Center
09:12PM 39.3806 -99.7406 252° West 428 493 36,000  Level Denver Center
09:13PM 39.3456 -99.8831 252° West 433 498 36,000  Level Denver Center
09:14PM 39.3042 -100.0467 252° West 430 495 36,000  Level Denver Center
09:15PM 39.2686 -100.1869 252° West 429 494 36,000  Level Denver Center
09:16PM 39.2208 -100.3481 249° West 430 495 36,000  Level Denver Center
09:17PM 39.1775 -100.4847 248° West 429 494 36,000  Level Denver Center
09:18PM 39.1269 -100.6444 248° West 431 496 36,000  Level Denver Center
09:19PM 39.0847 -100.7817 248° West 430 495 36,000  Level Denver Center
09:20PM 39.0419 -100.9178 248° West 428 493 36,000  Level Denver Center
09:21PM 38.9942 -101.0681 248° West 429 494 36,000  Level Denver Center
09:22PM 38.9436 -101.2267 248° West 431 496 36,000  Level Denver Center
09:23PM 38.9000 -101.3631 248° West 433 498 36,000  Level Denver Center
09:24PM 38.8489 -101.5225 248° West 436 502 36,000  Level Denver Center
09:25PM 38.8042 -101.6564 247° West 430 495 36,000  Level Denver Center
09:27PM 38.7614 -101.7889 248° West 422 486 36,000  Level Denver Center
09:28PM 38.7108 -101.9433 247° West 422 486 36,000  Level Denver Center
09:29PM 38.6667 -102.0744 247° West 421 484 36,000  Level Denver Center
09:30PM 38.6161 -102.2278 247° West 420 483 36,000  Level Denver Center
09:31PM 38.5731 -102.3611 248° West 424 488 36,000  Level Denver Center
09:32PM 38.5200 -102.5164 246° West 428 493 36,000  Level Denver Center
09:33PM 38.4761 -102.6492 247° West 426 490 36,000  Level Denver Center
09:34PM 38.4225 -102.8047 246° West 431 496 36,000  Level Denver Center
09:35PM 38.3772 -102.9392 247° West 432 497 36,000  Level Denver Center
09:36PM 38.3247 -103.0950 247° West 430 495 36,000  Level Denver Center
09:37PM 38.2794 -103.2272 246° West 432 497 36,000  Level Denver Center
09:38PM 38.2342 -103.3578 246° West 424 488 36,000  Level Denver Center
09:39PM 38.1808 -103.5114 246° West 425 489 36,000  Level Denver Center
09:40PM 38.1358 -103.6400 246° West 421 484 36,000  Level Denver Center
09:41PM 38.0839 -103.7906 246° West 419 482 36,000  Level Denver Center
09:42PM 38.0378 -103.9203 246° West 422 486 36,000  Level Denver Center
09:43PM 37.9856 -104.0708 246° West 422 486 36,000  Level Denver Center
09:44PM 37.9394 -104.2011 246° West 426 490 36,000  Level Denver Center
09:45PM 37.8844 -104.3539 246° West 428 493 36,000  Level Denver Center
09:46PM 37.8383 -104.4825 246° West 424 488 36,000  Level Denver Center
09:47PM 37.7847 -104.6308 245° Southwest 419 482 36,000  Level Denver Center
09:48PM 37.7394 -104.7578 246° West 415 478 36,000  Level Denver Center
09:49PM 37.6867 -104.9036 245° Southwest 411 473 36,000  Level Denver Center
09:50PM 37.6406 -105.0292 245° Southwest 410 472 36,000  Level Denver Center
09:51PM 37.5875 -105.1739 245° Southwest 408 470 36,000  Level Denver Center
09:52PM 37.5392 -105.3050 245° Southwest 408 470 36,000  Level Denver Center
09:53PM 37.4931 -105.4303 245° Southwest 410 472 36,000  Level Denver Center
09:54PM 37.4378 -105.5769 245° Southwest 415 478 36,000  Level Denver Center
09:55PM 37.3911 -105.7025 245° Southwest 414 476 36,000  Level Denver Center
09:56PM 37.3444 -105.8264 245° Southwest 411 473 36,000  Level Denver Center
09:57PM 37.2925 -105.9744 246° West 413 475 36,000  Level Denver Center
09:58PM 37.2458 -106.1000 245° Southwest 414 476 36,000  Level Denver Center
09:59PM 37.1931 -106.2478 246° West 416 479 36,000  Level Denver Center
10:00PM 37.1464 -106.3753 245° Southwest 420 483 36,000  Level Denver Center
10:02PM 37.0919 -106.5250 246° West 422 486 36,100 480 Climbing Denver Center
10:03PM 37.0469 -106.6514 246° West 416 479 37,000 840 Climbing Denver Center
10:04PM 36.9928 -106.7992 245° Southwest 417 480 37,900 480 Climbing Denver Center
10:05PM 36.9450 -106.9247 245° Southwest 418 481 38,000  Climbing Denver Center
10:06PM 36.8989 -107.0514 246° West 418 481 38,000  Level Denver Center
10:07PM 36.8436 -107.1975 245° Southwest 419 482 38,000  Level Denver Center
10:08PM 36.7969 -107.3231 245° Southwest 419 482 38,000  Level Denver Center
10:09PM 36.7431 -107.4694 245° Southwest 418 481 38,000  Level Denver Center
10:10PM 36.6958 -107.5947 245° Southwest 418 481 38,000  Level Denver Center
10:11PM 36.6397 -107.7403 244° Southwest 418 481 38,000  Level Denver Center
10:12PM 36.5931 -107.8647 245° Southwest 417 480 38,000  Level Denver Center
10:13PM 36.5372 -108.0111 245° Southwest 419 482 38,000  Level Denver Center
10:14PM 36.4886 -108.1361 244° Southwest 420 483 38,000  Level Denver Center
10:15PM 36.4342 -108.2817 245° Southwest 417 480 38,000  Level Denver Center
10:16PM 36.3864 -108.4064 245° Southwest 418 481 38,000  Level Denver Center
10:17PM 36.3294 -108.5506 244° Southwest 417 480 38,000  Level Denver Center
10:18PM 36.2819 -108.6750 245° Southwest 418 481 38,000  Level Denver Center
10:19PM 36.2253 -108.8219 244° Southwest 424 488 38,000  Level Denver Center
10:20PM 36.1764 -108.9489 245° Southwest 433 498 38,100  Climbing Denver Center
10:21PM 36.1169 -109.0944 243° Southwest 433 498 38,000 -60 Descending Denver Center
10:22PM 36.0831 -109.1756 243° Southwest 428 493 38,000  Level Albuquerque Center
10:23PM 36.0261 -109.3211 244° Southwest 423 487 38,000  Level Albuquerque Center
10:24PM 35.9769 -109.4444 244° Southwest 421 484 38,000  Level Albuquerque Center
10:25PM 35.9189 -109.5886 244° Southwest 421 484 38,000  Level Albuquerque Center
10:26PM 35.8658 -109.7131 242° Southwest 424 488 38,000  Level Albuquerque Center
10:27PM 35.8061 -109.8592 243° Southwest 428 493 38,000  Level Albuquerque Center
10:28PM 35.7564 -109.9844 244° Southwest 426 490 38,000  Level Albuquerque Center
10:29PM 35.7039 -110.1106 243° Southwest 429 494 38,000  Level Albuquerque Center
10:30PM 35.6436 -110.2561 243° Southwest 428 493 38,000  Level Albuquerque Center
10:31PM 35.5931 -110.3819 244° Southwest 428 493 38,000  Level Albuquerque Center
10:32PM 35.5325 -110.5281 243° Southwest 429 494 38,000  Level Albuquerque Center
10:33PM 35.4800 -110.6517 242° Southwest 428 493 38,000  Level Albuquerque Center
10:34PM 35.4281 -110.7739 242° Southwest 424 488 38,000  Level Albuquerque Center
10:35PM 35.3714 -110.9161 244° Southwest 418 481 38,000  Level Albuquerque Center
10:36PM 35.3178 -111.0372 242° Southwest 419 482 38,000  Level Albuquerque Center
10:37PM 35.2633 -111.1750 244° Southwest 425 489 38,000  Level Albuquerque Center
10:38PM 35.2097 -111.3003 242° Southwest 421 484 38,000  Level Albuquerque Center
10:39PM 35.1578 -111.4267 243° Southwest 418 481 38,000  Level Albuquerque Center
10:40PM 35.1039 -111.5503 242° Southwest 415 478 38,000  Level Albuquerque Center
10:41PM 35.0503 -111.6753 242° Southwest 417 480 38,000  Level Albuquerque Center
10:42PM 34.9883 -111.8200 242° Southwest 418 481 38,000  Level Albuquerque Center
10:43PM 34.9347 -111.9439 242° Southwest 416 479 38,000  Level Albuquerque Center
10:44PM 34.8817 -112.0672 242° Southwest 414 476 38,000  Level Albuquerque Center
10:45PM 34.8283 -112.1908 242° Southwest 413 475 38,000  Level Albuquerque Center
10:46PM 34.7742 -112.3147 242° Southwest 415 478 38,000  Level Albuquerque Center
10:48PM 34.7203 -112.4375 242° Southwest 413 475 38,000  Level Albuquerque Center
10:49PM 34.6739 -112.5950 250° West 416 479 38,000  Level Albuquerque Center
10:50PM 34.6403 -112.7275 253° West 414 476 38,000  Level Albuquerque Center
10:51PM 34.6044 -112.8608 252° West 413 475 38,000  Level Albuquerque Center
10:52PM 34.5683 -112.9972 252° West 421 484 38,000  Level Albuquerque Center
10:53PM 34.5311 -113.1378 252° West 434 499 38,000  Level Albuquerque Center
10:54PM 34.4931 -113.2750 251° West 432 497 38,000 -180 Level Albuquerque Center
10:55PM 34.4558 -113.4153 252° West 435 501 37,700 -720 Descending Albuquerque Center
10:56PM 34.4175 -113.5553 252° West 435 501 36,600 -1,260 Descending Albuquerque Center
10:57PM 34.3708 -113.7217 251° West 432 497 35,200 -1,260 Descending Albuquerque Center
10:58PM 34.3336 -113.8606 252° West 432 497 34,100 -600 Descending Albuquerque Center
10:59PM 34.2931 -114.0019 251° West 435 501 34,000 -180 Descending Albuquerque Center
11:00PM 34.2506 -114.1525 251° West 448 516 33,800 -1,020 Descending Albuquerque Center
11:01PM 34.2111 -114.2942 251° West 447 514 32,000 -1,140 Descending Albuquerque Center
11:02PM 34.1894 -114.3769 252° West 447 514 31,900  Descending Los Angeles Center
11:03PM 34.1411 -114.5472 251° West 448 516 32,000  Climbing Los Angeles Center
11:04PM 34.0994 -114.6875 250° West 448 516 31,900  Descending Los Angeles Center
11:05PM 34.0422 -114.8211 243° Southwest 451 519 32,000  Climbing Los Angeles Center
11:06PM 33.9828 -114.9517 241° Southwest 447 514 32,000  Level Los Angeles Center
11:07PM 33.9253 -115.0828 242° Southwest 445 512 32,000 -300 Level Los Angeles Center
11:08PM 33.8553 -115.2417 242° Southwest 449 517 31,400 -780 Descending Los Angeles Center
11:09PM 33.7964 -115.3711 241° Southwest 443 510 30,400 -1,020 Descending Los Angeles Center
11:10PM 33.7392 -115.5003 242° Southwest 441 507 29,400 -1,020 Descending Los Angeles Center
11:11PM 33.6819 -115.6261 241° Southwest 430 495 28,400 -1,020 Descending Los Angeles Center
11:12PM 33.6264 -115.7519 242° Southwest 429 494 27,400 -1,020 Descending Los Angeles Center
11:13PM 33.5589 -115.8669 235° Southwest 422 486 26,400 -1,620 Descending Los Angeles Center
11:14PM 33.4569 -115.9747 221° Southwest 407 468 24,100 -2,280 Descending Los Angeles Center
11:15PM 33.3747 -116.0611 221° Southwest 396 456 21,800 -2,160 Descending Los Angeles Center
11:16PM 33.2944 -116.1450 221° Southwest 386 444 19,600 -2,040 Descending Los Angeles Center
11:17PM 33.2164 -116.2258 221° Southwest 375 432 17,700 -1,920 Descending Los Angeles Center
11:18PM 33.1425 -116.3028 221° Southwest 358 412 15,700 -2,100 Descending Los Angeles Center
11:19PM 33.0539 -116.3953 221° Southwest 356 410 13,400 -1,800 Descending Los Angeles Center
11:20PM 32.9772 -116.4600 215° Southwest 341 392 12,000 -720 Descending Los Angeles Center
11:21PM 32.8925 -116.5083 206° Southwest 338 389 12,000  Level Los Angeles Center
11:22PM 32.8244 -116.5731 219° Southwest 347 399 12,000  Level Los Angeles Center
11:23PM 32.7597 -116.7069 240° Southwest 336 387 12,000 -660 Level Los Angeles Center
11:25PM 32.6908 -116.7697 217° Southwest 332 382 10,700 -1,740 Descending Los Angeles Center
11:26PM 32.6156 -116.8006 199° South 303 349 8,500 -2,220 Descending Los Angeles Center
11:26PM 32.6500 -116.8833 296° West 277 319 6,300 -1,440 Descending Southern California TRACON
11:27PM 32.6667 -116.9333 292° West 228 262 5,700 -900 Descending Southern California TRACON
11:28PM 32.6833 -116.9833 292° West 172 198 4,700 -1,140 Descending Southern California TRACON